Terminal Aerodrome Forecast
Issued by NWS Jackson, MS

Home | Current Version | Previous Version | Text Only | Print | Product List | Glossary On
Versions: 1 2 3 4 5 6 7 8 9 10 11 12 13
000
FTUS44 KJAN 010101 AAA
TAFGWO
TAF AMD
KGWO 010101Z 0101/0124 23008KT 2SM +TSRA SCT060CB BKN080
     FM010130 23006KT P6SM SCT060 OVC080
     FM010200 00000KT 6SM BR BKN250
     FM011300 19003KT P6SM SCT050 BKN250=

USA.gov is the U.S. government's official web portal to all federal, state and local government web resources and services.